Main page
METAR-TAF:

METAR-TAF

Airports :

Danbury Municipal Airport

Danbury, Connecticut, United States

latitude: 41-22-18N, longitude: 073-29-04W, elevation: 456 ft

Current weather observation

The report was made 15 minutes ago, at 06:53 UTC
Wind 13 mph from the North with gusts up to 22 mph
Temperature 37°F
Humidity 65%
Pressure 30.11 in. Hg
Visibility: 10 miles
Clear sky

METAR: KDXR 210653Z AUTO 35011G19KT 10SM CLR 03/M03 A3011 RMK AO2 SLP200 T00281033

Time: 02:08 (07:08 UTC)


TAF: missing

Weather observations and forecasts of more than 4000 airports (METAR and TAF reports).

The available stations are represented by yellow and red dots on the map.

Hover mouse over dot to see the name of the station.

Then click to see weather observations and forecasts.

To change the map : click on the green buttons with a black cross to zoom in, on the green button with a dash to zoom out, or on the green arrows for adjacent maps.


METAR-TAF: